Terminal Aerodrome Forecast
Issued by NWS

Home | Current Version | Previous Version | Text Only | Print | Product List | Glossary On
Versions: 1 2 3 4 5 6 7 8 9 10 11 12
000
FTPA31 PHFO 232347
TAFHOG
TAF
PHOG 232347Z 2400/2424 21014KT P6SM FEW030 SCT050 BKN100
     FM240600 20010KT P6SM VCSH SCT030 BKN050
     FM241200 22010KT P6SM VCTS SCT015CB BKN030 BKN040
     FM242000 35010KT P6SM VCSH SCT030 BKN050
      AMD LTD TO VIS AND WIND 2409/2416=

USA.gov is the U.S. government's official web portal to all federal, state and local government web resources and services.